Hovedside
METAR-TAF:

METAR-TAF

Lufthavner :

Utti, Finland

Utti lufthavn

breddegrad: 60-54N, lengdegrad: 026-56E, høyde over havet: 100 m

Gjeldene værobservasjon

Denne rapporten ble laget for 36 minutter siden, klokken 21:20 UTC
Vind 3 kt fra Sør-sørvest
Temperatur 17°C
Luftfuktighet 88%
Trykk 1014 hPa
Sikt 10 km eller mer
Overskyet i en høyde av 3000 ft

METAR: EFUT 182120Z AUTO 20003KT 9999 OVC030 17/15 Q1014

Tid: 00:56 (21:56 UTC)

Varsel

Denne rapporten ble laget for 13 timer og 30 minutter siden, klokken 08:26 UTC
Varsel gyldig fra 18. klokken 09 UTC til 18. klokken 12 UTC
Vind 4 kt fra Øst-sørøst
Sikt 10 km eller mer
Brutte skyer i en høyde av 500 ft
Midlertidig
fra 18. klokken 09 UTC til 18. klokken 10 UTC
Brutte skyer i en høyde av 400 ft
Blir
fra 18. klokken 10 UTC til 18. klokken 12 UTC
Spredte skyer i en høyde av 2000 ft

TAF: EFUT 180826Z 1809/1812 12004KT 9999 BKN005 TEMPO 1809/1810 BKN004 BECMG 1810/1812 SCT020

Værobservasjoner og værvarsel for over 4000 flyplasser (METAR- og TAF-rapporter).

Tilgjengelige stasjoner er representert av de røde og gule prikkene på kartet.

Hold musepekeren over prikken for å se navnet på stasjonen.

Klikk så for å se værobservasjoner og -varsler.

For å forandre kartet kan du klikke på den grønne knappen med svart kryss for å zoome inn, på den grønne knappen med strek for å zoome ut, eller på de grønne pilene for å se tilstøtende kart.


METAR-TAF: